createdAt,value
2019-04-11T00:02:04.654Z,99.90
2019-04-11T00:04:34.487Z,99.90
2019-04-11T00:07:05.898Z,99.90
2019-04-11T00:09:35.584Z,99.90
2019-04-11T00:12:06.780Z,99.90
2019-04-11T00:14:36.255Z,99.90
2019-04-11T00:17:05.852Z,99.90
2019-04-11T00:19:35.816Z,99.90
2019-04-11T00:22:05.737Z,99.90
2019-04-11T00:24:36.667Z,99.90
2019-04-11T00:27:06.583Z,99.90
2019-04-11T00:29:36.572Z,99.90
2019-04-11T00:32:09.068Z,99.90
2019-04-11T00:34:37.456Z,99.90
2019-04-11T00:37:07.131Z,99.90
2019-04-11T00:39:37.538Z,99.90
2019-04-11T00:42:07.241Z,99.90
2019-04-11T00:44:36.903Z,99.90
2019-04-11T00:47:06.922Z,99.90
2019-04-11T00:49:36.717Z,99.90
2019-04-11T00:52:06.548Z,99.90
2019-04-11T00:54:36.350Z,99.90
2019-04-11T00:57:06.552Z,99.90
2019-04-11T00:59:36.358Z,99.90
2019-04-11T01:02:07.307Z,99.90
2019-04-11T01:04:37.117Z,99.90
2019-04-11T01:07:06.928Z,99.90
2019-04-11T01:09:36.766Z,99.90
2019-04-11T01:12:06.440Z,99.90
2019-04-11T01:14:37.289Z,99.90
2019-04-11T01:17:07.855Z,99.90
2019-04-11T01:19:38.616Z,99.90
2019-04-11T01:22:09.836Z,99.90
2019-04-11T01:24:39.889Z,99.90
2019-04-11T01:27:09.880Z,99.90
2019-04-11T01:29:39.819Z,99.90
2019-04-11T01:32:11.006Z,99.90
2019-04-11T01:34:40.636Z,99.90
2019-04-11T01:37:11.317Z,99.90
2019-04-11T01:39:43.400Z,99.90
2019-04-11T01:42:13.240Z,99.90
2019-04-11T01:44:43.037Z,99.90
2019-04-11T01:47:14.990Z,99.90
2019-04-11T01:49:44.599Z,99.90
2019-04-11T01:52:14.164Z,99.90
2019-04-11T01:54:43.886Z,99.90
2019-04-11T01:57:13.853Z,99.90
2019-04-11T01:59:43.821Z,99.90
2019-04-11T02:02:15.168Z,99.90
2019-04-11T02:04:46.280Z,99.90
2019-04-11T02:07:15.753Z,99.90
2019-04-11T02:09:46.311Z,99.90
2019-04-11T02:12:16.270Z,99.90
2019-04-11T02:14:47.916Z,99.90
2019-04-11T02:17:18.785Z,99.90
2019-04-11T02:19:48.493Z,99.90
2019-04-11T02:22:19.605Z,99.90
2019-04-11T02:24:50.727Z,99.90
2019-04-11T02:27:23.301Z,99.90
2019-04-11T02:29:53.078Z,99.90
2019-04-11T02:32:25.410Z,99.90
2019-04-11T02:34:58.932Z,99.90
2019-04-11T02:37:26.378Z,99.90
2019-04-11T02:39:57.860Z,99.90
2019-04-11T02:42:27.700Z,99.90
2019-04-11T02:45:13.772Z,99.90
2019-04-11T02:47:32.758Z,99.90
2019-04-11T02:50:01.212Z,99.90
2019-04-11T02:52:31.260Z,99.90
2019-04-11T02:55:00.972Z,99.90
2019-04-11T02:57:32.142Z,99.90
2019-04-11T03:00:04.217Z,99.90
2019-04-11T03:02:34.707Z,99.90
2019-04-11T03:05:06.946Z,99.90
2019-04-11T03:07:37.947Z,99.90
2019-04-11T03:10:09.902Z,99.90
2019-04-11T03:12:40.511Z,99.90
2019-04-11T03:15:28.275Z,99.90
2019-04-11T03:17:44.564Z,99.90
2019-04-11T03:20:25.889Z,99.90
2019-04-11T03:22:46.108Z,99.90
2019-04-11T03:25:16.205Z,99.90
2019-04-11T03:27:47.399Z,99.90
2019-04-11T03:30:23.960Z,99.90
2019-04-11T03:33:46.873Z,99.90
2019-04-11T03:38:19.533Z,99.90
2019-04-11T03:40:43.719Z,99.90
2019-04-11T03:43:10.727Z,99.90
2019-04-11T03:45:48.071Z,99.90
2019-04-11T03:48:12.385Z,99.90
2019-04-11T03:50:34.319Z,99.90
2019-04-11T03:53:14.367Z,99.90
2019-04-11T03:55:45.506Z,99.90
2019-04-11T03:58:17.296Z,99.90
2019-04-11T04:00:49.622Z,99.90
2019-04-11T04:03:20.078Z,99.90
2019-04-11T04:05:50.613Z,99.90
2019-04-11T04:08:22.300Z,99.90
2019-04-11T04:10:56.345Z,99.90
2019-04-11T04:13:28.279Z,99.90
2019-04-11T04:16:10.818Z,99.90
2019-04-11T04:18:32.665Z,99.90
2019-04-11T04:21:08.236Z,99.90
2019-04-11T04:23:38.057Z,99.90
2019-04-11T04:26:10.529Z,99.90
2019-04-11T04:28:40.826Z,99.90
2019-04-11T04:31:11.499Z,99.90
2019-04-11T04:33:42.826Z,99.90
2019-04-11T04:36:13.882Z,99.90
2019-04-11T04:38:44.564Z,99.90
2019-04-11T04:41:26.566Z,99.90
2019-04-11T04:43:48.092Z,99.90
2019-04-11T04:46:34.809Z,99.90
2019-04-11T04:48:51.090Z,99.90
2019-04-11T04:51:24.091Z,99.90
2019-04-11T04:53:52.458Z,99.90
2019-04-11T04:56:26.592Z,99.90
2019-04-11T04:58:54.053Z,99.90
2019-04-11T05:01:24.020Z,99.90
2019-04-11T05:03:56.248Z,99.90
2019-04-11T05:06:26.196Z,99.90
2019-04-11T05:08:56.107Z,99.90
2019-04-11T05:11:26.208Z,99.90
2019-04-11T05:13:56.653Z,99.90
2019-04-11T05:16:26.423Z,99.90
2019-04-11T05:18:56.688Z,99.90
2019-04-11T05:21:27.635Z,99.90
2019-04-11T05:23:58.483Z,99.90
2019-04-11T05:26:28.160Z,99.90
2019-04-11T05:28:57.662Z,99.90
2019-04-11T05:31:27.168Z,99.90
2019-04-11T05:33:56.620Z,99.90
2019-04-11T05:36:26.220Z,99.90
2019-04-11T05:38:55.692Z,99.90
2019-04-11T05:41:26.215Z,99.90
2019-04-11T05:43:55.835Z,99.90
2019-04-11T05:46:33.454Z,99.90
2019-04-11T05:49:00.653Z,99.90
2019-04-11T05:51:36.960Z,99.90
2019-04-11T05:54:05.810Z,99.90
2019-04-11T05:56:33.934Z,99.90
2019-04-11T05:59:05.402Z,99.90
2019-04-11T06:01:36.588Z,99.90
2019-04-11T06:04:07.938Z,99.90
2019-04-11T06:06:40.126Z,99.90
2019-04-11T06:09:13.323Z,99.90
2019-04-11T06:11:45.278Z,99.90
2019-04-11T06:14:17.292Z,99.90
2019-04-11T06:16:52.630Z,99.90
2019-04-11T06:19:21.221Z,99.90
2019-04-11T06:21:52.635Z,99.90
2019-04-11T06:24:23.913Z,99.90
2019-04-11T06:26:55.041Z,99.90
2019-04-11T06:29:27.765Z,99.90
2019-04-11T06:31:59.221Z,99.90
2019-04-11T06:34:30.487Z,99.90
2019-04-11T06:37:01.665Z,99.90
2019-04-11T06:39:31.469Z,99.90
2019-04-11T06:42:04.210Z,99.90
2019-04-11T06:44:34.227Z,99.90
2019-04-11T06:47:05.483Z,99.90
2019-04-11T06:49:38.415Z,99.90
2019-04-11T06:52:10.722Z,99.90
2019-04-11T06:54:43.312Z,99.90
2019-04-11T06:57:14.562Z,99.90
2019-04-11T06:59:45.612Z,99.90
2019-04-11T07:02:19.708Z,99.90
2019-04-11T07:04:47.840Z,99.90
2019-04-11T07:07:18.520Z,99.90
2019-04-11T07:09:50.087Z,99.90
2019-04-11T07:12:19.445Z,99.90
2019-04-11T07:14:52.869Z,99.90
2019-04-11T07:17:24.089Z,99.90
2019-04-11T07:19:55.820Z,99.90
2019-04-11T07:22:26.917Z,99.90
2019-04-11T07:24:57.932Z,99.90
2019-04-11T07:27:29.012Z,99.90
2019-04-11T07:29:59.993Z,99.90
2019-04-11T07:32:29.878Z,99.90
2019-04-11T07:35:02.279Z,99.90
2019-04-11T07:37:33.524Z,99.90
2019-04-11T07:40:06.219Z,99.90
2019-04-11T07:42:39.066Z,99.90
2019-04-11T07:45:13.035Z,99.90
2019-04-11T07:47:43.906Z,99.90
2019-04-11T07:50:16.497Z,99.90
2019-04-11T07:52:46.929Z,99.90
2019-04-11T07:55:18.957Z,99.90
2019-04-11T07:57:50.055Z,99.90
2019-04-11T08:00:34.933Z,99.90
2019-04-11T08:02:53.151Z,99.90
2019-04-11T08:05:24.614Z,99.90
2019-04-11T08:07:55.668Z,99.90
2019-04-11T08:10:27.203Z,99.90
2019-04-11T08:12:58.504Z,99.90
2019-04-11T08:15:29.607Z,99.90
2019-04-11T08:18:01.774Z,99.90
2019-04-11T08:20:33.294Z,99.90
2019-04-11T08:23:05.577Z,99.90
2019-04-11T08:25:37.605Z,99.90
2019-04-11T08:28:13.626Z,99.90
2019-04-11T08:30:43.325Z,99.90
2019-04-11T08:33:14.273Z,99.90
2019-04-11T08:35:45.561Z,99.90
2019-04-11T08:38:18.503Z,99.90
2019-04-11T08:40:49.816Z,99.90
2019-04-11T08:43:21.342Z,99.90
2019-04-11T08:46:04.689Z,99.90
2019-04-11T08:48:37.129Z,99.90
2019-04-11T08:51:09.713Z,99.90
2019-04-11T08:53:40.970Z,99.90
2019-04-11T08:56:10.836Z,99.90
2019-04-11T08:58:41.980Z,99.90
2019-04-11T09:01:13.769Z,99.90
2019-04-11T09:03:56.689Z,99.90
2019-04-11T09:06:18.816Z,99.90
2019-04-11T09:08:51.074Z,99.90
2019-04-11T09:11:22.562Z,99.90
2019-04-11T09:13:53.770Z,99.90
2019-04-11T09:16:25.773Z,99.90
2019-04-11T09:18:59.309Z,99.90
2019-04-11T09:21:29.625Z,99.90
2019-04-11T09:24:00.195Z,99.90
2019-04-11T09:26:32.030Z,99.90
2019-04-11T09:29:01.889Z,99.90
2019-04-11T09:31:33.778Z,99.90
2019-04-11T09:34:05.788Z,99.90
2019-04-11T09:36:37.010Z,99.90
2019-04-11T09:39:10.847Z,99.90
2019-04-11T09:41:42.749Z,99.90
2019-04-11T09:44:14.852Z,99.90
2019-04-11T09:46:46.254Z,99.90
2019-04-11T09:49:15.616Z,99.90
2019-04-11T09:51:47.685Z,99.90
2019-04-11T09:54:19.807Z,99.90
2019-04-11T09:56:51.771Z,99.90
2019-04-11T09:59:24.947Z,99.90
2019-04-11T10:01:56.317Z,99.90
2019-04-11T10:04:27.708Z,99.90
2019-04-11T10:06:59.206Z,99.90
2019-04-11T10:09:30.409Z,99.90
2019-04-11T10:12:02.418Z,99.90
2019-04-11T10:14:33.395Z,99.90
2019-04-11T10:17:08.565Z,99.90
2019-04-11T10:19:38.667Z,99.90
2019-04-11T10:22:10.961Z,99.90
2019-04-11T10:24:42.913Z,99.90
2019-04-11T10:27:14.353Z,99.90
2019-04-11T10:29:45.595Z,99.90
2019-04-11T10:32:17.027Z,99.90
2019-04-11T10:34:50.009Z,99.90
2019-04-11T10:37:21.175Z,99.90
2019-04-11T10:39:51.333Z,99.90
2019-04-11T10:42:22.175Z,99.90
2019-04-11T10:44:54.114Z,99.90
2019-04-11T10:47:25.268Z,99.90
2019-04-11T10:49:56.740Z,99.90
2019-04-11T10:52:28.756Z,99.90
2019-04-11T10:55:00.858Z,99.90
2019-04-11T10:57:33.140Z,99.90
2019-04-11T11:00:05.123Z,99.90
2019-04-11T11:02:36.360Z,99.90
2019-04-11T11:05:09.337Z,99.90
2019-04-11T11:07:40.580Z,99.90
2019-04-11T11:10:11.729Z,99.90
2019-04-11T11:12:41.414Z,99.60
2019-04-11T11:15:13.667Z,99.70
2019-04-11T11:18:11.466Z,99.90
2019-04-11T11:20:26.379Z,99.90
2019-04-11T11:22:51.695Z,99.80
2019-04-11T11:25:22.940Z,98.40
2019-04-11T11:27:52.417Z,98.70
2019-04-11T11:30:23.577Z,98.20
2019-04-11T11:32:53.863Z,98.50
2019-04-11T11:35:29.729Z,99.90
2019-04-11T11:37:57.576Z,98.70
2019-04-11T11:40:29.913Z,98.10
2019-04-11T11:43:01.190Z,98.80
2019-04-11T11:45:33.215Z,98.30
2019-04-11T11:48:08.876Z,97.70
2019-04-11T11:50:36.548Z,98.00
2019-04-11T11:53:12.683Z,97.90
2019-04-11T11:55:41.258Z,98.30
2019-04-11T11:58:16.677Z,97.90
2019-04-11T12:00:48.063Z,98.50
2019-04-11T12:03:19.153Z,98.30
2019-04-11T12:05:53.664Z,99.30
2019-04-11T12:08:24.531Z,99.30
2019-04-11T12:10:55.718Z,98.70
2019-04-11T12:13:26.846Z,97.90
2019-04-11T12:15:57.956Z,99.10
2019-04-11T12:18:28.990Z,97.40
2019-04-11T12:21:01.167Z,97.00
2019-04-11T12:23:44.772Z,97.20
2019-04-11T12:26:05.418Z,96.40
2019-04-11T12:28:38.462Z,96.50
2019-04-11T12:31:09.354Z,97.10
2019-04-11T12:33:41.569Z,97.40
2019-04-11T12:36:14.676Z,96.10
2019-04-11T12:38:45.902Z,97.40
2019-04-11T12:41:16.960Z,97.20
2019-04-11T12:43:48.089Z,97.70
2019-04-11T12:46:29.475Z,98.10
2019-04-11T12:48:50.681Z,98.00
2019-04-11T12:51:21.819Z,97.30
2019-04-11T12:53:51.299Z,97.70
2019-04-11T12:56:22.341Z,96.80
2019-04-11T12:58:52.905Z,97.10
2019-04-11T13:01:24.484Z,96.40
2019-04-11T13:03:55.655Z,95.10
2019-04-11T13:06:35.202Z,96.00
2019-04-11T13:08:59.686Z,95.80
2019-04-11T13:11:30.944Z,95.30
2019-04-11T13:14:02.017Z,95.80
2019-04-11T13:16:31.529Z,95.60
2019-04-11T13:19:00.703Z,95.40
2019-04-11T13:21:33.098Z,95.50
2019-04-11T13:24:04.139Z,95.70
2019-04-11T13:26:35.233Z,95.40
2019-04-11T13:29:06.297Z,94.80
2019-04-11T13:31:37.341Z,95.40
2019-04-11T13:34:11.109Z,95.20
2019-04-11T13:36:41.686Z,94.80
2019-04-11T13:39:11.427Z,94.50
2019-04-11T13:41:42.614Z,93.20
2019-04-11T13:44:13.915Z,94.40
2019-04-11T13:46:45.080Z,94.30
2019-04-11T13:49:16.381Z,92.90
2019-04-11T13:51:47.486Z,94.90
2019-04-11T13:54:18.667Z,94.00
2019-04-11T13:56:48.068Z,94.50
2019-04-11T13:59:17.395Z,94.40
2019-04-11T14:01:48.448Z,93.80
2019-04-11T14:04:19.472Z,93.80
2019-04-11T14:06:49.814Z,94.70
2019-04-11T14:09:20.965Z,93.00
2019-04-11T14:11:50.591Z,92.00
2019-04-11T14:14:21.822Z,90.60
2019-04-11T14:16:53.033Z,91.80
2019-04-11T14:19:24.117Z,91.70
2019-04-11T14:21:53.785Z,92.40
2019-04-11T14:24:24.842Z,91.80
2019-04-11T14:26:55.884Z,92.20
2019-04-11T14:29:27.081Z,92.90
2019-04-11T14:31:58.169Z,92.40
2019-04-11T14:34:29.479Z,92.20
2019-04-11T14:37:00.760Z,90.00
2019-04-11T14:39:31.802Z,91.80
2019-04-11T14:42:02.837Z,90.40
2019-04-11T14:44:33.955Z,92.00
2019-04-11T14:47:06.846Z,92.10
2019-04-11T14:49:40.745Z,91.10
2019-04-11T14:52:12.072Z,91.50
2019-04-11T14:54:43.482Z,90.70
2019-04-11T14:57:14.542Z,90.60
2019-04-11T14:59:45.634Z,91.80
2019-04-11T15:02:17.114Z,91.00
2019-04-11T15:04:48.255Z,90.10
2019-04-11T15:07:19.387Z,91.00
2019-04-11T15:09:48.553Z,90.00
2019-04-11T15:12:19.559Z,90.50
2019-04-11T15:14:51.881Z,90.50
2019-04-11T15:17:24.281Z,90.30
2019-04-11T15:19:56.275Z,90.30
2019-04-11T15:22:27.353Z,90.20
2019-04-11T15:24:58.356Z,91.40
2019-04-11T15:27:29.416Z,91.10
2019-04-11T15:30:00.405Z,91.00
2019-04-11T15:32:33.193Z,91.10
2019-04-11T15:35:02.606Z,91.60
2019-04-11T15:37:33.765Z,91.80
2019-04-11T15:40:05.260Z,91.20
2019-04-11T15:42:37.788Z,90.60
2019-04-11T15:45:09.176Z,90.10
2019-04-11T15:47:40.179Z,90.60
2019-04-11T15:50:11.267Z,91.20
2019-04-11T15:52:42.319Z,91.30
2019-04-11T15:55:14.383Z,90.70
2019-04-11T15:57:44.554Z,91.10
2019-04-11T16:00:15.798Z,90.70
2019-04-11T16:02:45.075Z,90.50
2019-04-11T16:05:16.203Z,90.90
2019-04-11T16:07:47.221Z,90.60
2019-04-11T16:10:16.995Z,92.20
2019-04-11T16:12:48.002Z,91.00
2019-04-11T16:15:18.890Z,90.80
2019-04-11T16:17:49.973Z,90.90
2019-04-11T16:20:19.459Z,90.60
2019-04-11T16:22:54.892Z,91.00
2019-04-11T16:25:22.206Z,92.10
2019-04-11T16:27:53.379Z,93.10
2019-04-11T16:30:24.419Z,91.90
2019-04-11T16:32:55.608Z,92.10
2019-04-11T16:35:26.042Z,92.60
2019-04-11T16:38:00.351Z,92.50
2019-04-11T16:40:30.457Z,93.30
2019-04-11T16:43:01.572Z,93.10
2019-04-11T16:45:32.665Z,93.00
2019-04-11T16:48:03.696Z,92.50
2019-04-11T16:50:33.158Z,92.80
2019-04-11T16:53:02.856Z,92.30
2019-04-11T16:55:32.379Z,92.80
2019-04-11T16:58:01.955Z,94.00
2019-04-11T17:00:31.607Z,93.90
2019-04-11T17:03:01.170Z,93.30
2019-04-11T17:05:30.917Z,93.80
2019-04-11T17:08:02.020Z,93.10
2019-04-11T17:10:33.089Z,93.60
2019-04-11T17:13:02.667Z,93.40
2019-04-11T17:15:32.047Z,93.60
2019-04-11T17:18:02.161Z,95.10
2019-04-11T17:20:35.713Z,95.20
2019-04-11T17:23:03.763Z,94.00
2019-04-11T17:25:33.319Z,96.30
2019-04-11T17:28:04.422Z,95.70
2019-04-11T17:30:34.027Z,96.00
2019-04-11T17:33:03.637Z,96.00
2019-04-11T17:35:33.018Z,95.00
2019-04-11T17:38:04.165Z,96.30
2019-04-11T17:40:34.992Z,96.90
2019-04-11T17:43:04.799Z,96.30
2019-04-11T17:45:34.279Z,95.90
2019-04-11T17:48:03.805Z,96.20
2019-04-11T17:50:35.010Z,95.70
2019-04-11T17:53:04.789Z,96.60
2019-04-11T17:55:34.601Z,95.10
2019-04-11T17:58:04.165Z,95.80
2019-04-11T18:00:35.335Z,95.70
2019-04-11T18:03:05.498Z,95.70
2019-04-11T18:05:34.960Z,97.40
2019-04-11T18:08:04.496Z,95.90
2019-04-11T18:10:33.983Z,95.70
2019-04-11T18:13:03.541Z,96.90
2019-04-11T18:15:32.962Z,97.10
2019-04-11T18:18:03.226Z,97.60
2019-04-11T18:20:36.819Z,97.70
2019-04-11T18:23:05.073Z,96.50
2019-04-11T18:25:34.496Z,95.90
2019-04-11T18:28:05.089Z,98.10
2019-04-11T18:30:34.630Z,99.20
2019-04-11T18:33:04.224Z,98.60
2019-04-11T18:35:33.928Z,97.90
2019-04-11T18:38:03.446Z,97.10
2019-04-11T18:40:32.969Z,97.30
2019-04-11T18:43:02.795Z,97.50
2019-04-11T18:45:32.301Z,97.60
2019-04-11T18:48:01.824Z,98.00
2019-04-11T18:50:31.302Z,97.50
2019-04-11T18:53:00.879Z,98.00
2019-04-11T18:55:30.494Z,98.60
2019-04-11T18:58:01.751Z,97.80
2019-04-11T19:00:31.424Z,97.60
2019-04-11T19:03:01.073Z,97.00
2019-04-11T19:05:30.859Z,96.30
2019-04-11T19:08:00.330Z,96.20
2019-04-11T19:10:31.304Z,96.70
2019-04-11T19:13:00.903Z,97.30
2019-04-11T19:15:30.379Z,97.30
2019-04-11T19:18:06.134Z,97.90
2019-04-11T19:23:34.328Z,96.10
2019-04-11T19:26:04.230Z,95.50
2019-04-11T19:28:34.001Z,94.70
2019-04-11T19:31:03.451Z,93.90
2019-04-11T19:33:34.235Z,93.80
2019-04-11T19:36:04.448Z,94.60
2019-04-11T19:38:37.292Z,93.60
2019-04-11T19:41:06.922Z,92.60
2019-04-11T19:43:37.181Z,92.30
2019-04-11T19:46:07.522Z,92.20
2019-04-11T19:48:37.758Z,92.30
2019-04-11T19:51:10.904Z,91.40
2019-04-11T19:53:41.942Z,92.10
2019-04-11T19:56:13.007Z,90.20
2019-04-11T19:58:43.545Z,91.50
2019-04-11T20:01:14.746Z,89.60
2019-04-11T20:03:44.240Z,89.50
2019-04-11T20:06:13.754Z,89.50
2019-04-11T20:08:43.267Z,86.80
2019-04-11T20:11:12.637Z,88.60
2019-04-11T20:13:42.146Z,89.00
2019-04-11T20:16:12.503Z,88.70
2019-04-11T20:18:50.995Z,89.90
2019-04-11T20:21:13.942Z,89.90
2019-04-11T20:23:43.432Z,88.50
2019-04-11T20:26:12.945Z,90.30
2019-04-11T20:28:42.778Z,88.20
2019-04-11T20:31:13.332Z,88.90
2019-04-11T20:33:42.921Z,88.70
2019-04-11T20:36:13.529Z,90.30
2019-04-11T20:38:44.732Z,90.10
2019-04-11T20:41:14.224Z,89.70
2019-04-11T20:43:43.613Z,90.70
2019-04-11T20:46:13.558Z,91.70
2019-04-11T20:48:43.072Z,90.80
2019-04-11T20:51:12.570Z,90.30
2019-04-11T20:53:41.967Z,90.40
2019-04-11T20:56:23.575Z,90.90
2019-04-11T20:58:43.617Z,90.60
2019-04-11T21:01:13.075Z,90.60
2019-04-11T21:03:42.440Z,90.50
2019-04-11T21:06:12.010Z,90.10
2019-04-11T21:08:41.418Z,91.60
2019-04-11T21:11:10.812Z,90.50
2019-04-11T21:13:40.323Z,90.70
2019-04-11T21:16:09.696Z,90.20
2019-04-11T21:18:39.090Z,91.20
2019-04-11T21:21:08.651Z,90.80
2019-04-11T21:23:38.091Z,91.30
2019-04-11T21:26:07.487Z,91.00
2019-04-11T21:28:36.873Z,90.90
2019-04-11T21:31:06.443Z,90.20
2019-04-11T21:33:35.832Z,90.80
2019-04-11T21:36:05.448Z,90.70
2019-04-11T21:38:34.921Z,91.20
2019-04-11T21:41:06.110Z,91.50
2019-04-11T21:43:36.854Z,91.40
2019-04-11T21:46:06.805Z,92.10
2019-04-11T21:48:36.986Z,91.20
2019-04-11T21:51:06.385Z,91.60
2019-04-11T21:53:36.966Z,92.10
2019-04-11T21:56:06.689Z,92.60
2019-04-11T21:58:36.143Z,92.30
2019-04-11T22:01:08.576Z,91.20
2019-04-11T22:03:38.388Z,91.80
2019-04-11T22:06:07.979Z,92.20
2019-04-11T22:08:37.466Z,91.50
2019-04-11T22:11:10.178Z,92.10
2019-04-11T22:13:40.307Z,92.50
2019-04-11T22:16:13.472Z,92.80
2019-04-11T22:18:44.321Z,92.50
2019-04-11T22:21:15.421Z,92.50
2019-04-11T22:23:48.951Z,92.50
2019-04-11T22:26:15.267Z,93.00
2019-04-11T22:28:44.833Z,92.40
2019-04-11T22:31:14.433Z,92.00
2019-04-11T22:33:45.608Z,92.40
2019-04-11T22:36:15.172Z,93.30
2019-04-11T22:38:44.803Z,93.10
2019-04-11T22:41:14.282Z,93.00
2019-04-11T22:43:43.849Z,92.60
2019-04-11T22:46:20.476Z,92.00
2019-04-11T22:48:44.574Z,91.30
2019-04-11T22:51:13.974Z,93.00
2019-04-11T22:53:44.003Z,93.40
2019-04-11T22:56:13.669Z,93.20
2019-04-11T22:58:43.713Z,93.10
2019-04-11T23:01:16.541Z,92.30
2019-04-11T23:03:47.668Z,93.30
2019-04-11T23:06:17.769Z,92.50
2019-04-11T23:08:48.999Z,92.90
2019-04-11T23:11:18.570Z,92.60
2019-04-11T23:13:48.323Z,92.80
2019-04-11T23:16:17.895Z,92.60
2019-04-11T23:18:47.276Z,92.70
2019-04-11T23:21:16.788Z,93.30
2019-04-11T23:23:46.162Z,93.10
2019-04-11T23:26:15.638Z,93.70
2019-04-11T23:28:46.743Z,94.20
2019-04-11T23:31:19.954Z,92.70
2019-04-11T23:33:51.714Z,92.50
2019-04-11T23:36:21.204Z,92.70
2019-04-11T23:38:52.724Z,92.80
2019-04-11T23:41:21.794Z,93.10
2019-04-11T23:43:51.440Z,92.80
2019-04-11T23:46:21.406Z,92.70
2019-04-11T23:48:54.754Z,93.20
2019-04-11T23:51:25.393Z,93.50
2019-04-11T23:53:53.835Z,93.20
2019-04-11T23:56:23.297Z,93.50
2019-04-11T23:58:52.771Z,93.70
